Time;durP1;ratioP1;P1;durP2;ratioP2;P2;SDS_P1;SDS_P2;PMS_P1;PMS_P2;Temp;Humidity;BMP_temperature;BMP_pressure;BME280_temperature;BME280_humidity;BME280_pressure;Samples;Min_cycle;Max_cycle;Signal;HPM_P1;HPM_P2
2021/10/24 00:04:44;;;;;;;13.52;7.78;;;;;;;4.52;87.35;101575.75;20814175;28;20053;-69
2021/10/24 00:14:46;;;;;;;14.68;8.32;;;;;;;4.44;87.47;101590.22;20821977;28;20080;-69
2021/10/24 00:24:48;;;;;;;19.27;7.95;;;;;;;4.38;87.36;101584.03;20828247;28;20050;-69
2021/10/24 00:34:49;;;;;;;14.05;8.00;;;;;;;4.37;87.44;101584.00;20827723;28;20049;-69
2021/10/24 00:44:51;;;;;;;15.02;7.82;;;;;;;4.22;88.41;101588.75;20826454;28;20099;-68
2021/10/24 00:54:52;;;;;;;19.33;8.38;;;;;;;4.20;88.27;101575.72;20827753;28;20045;-68
2021/10/24 01:04:54;;;;;;;17.55;8.50;;;;;;;4.14;88.24;101567.78;20825284;28;20050;-69
2021/10/24 01:14:55;;;;;;;19.13;8.68;;;;;;;4.06;88.39;101551.09;20825484;28;20060;-68
2021/10/24 01:24:57;;;;;;;17.60;8.38;;;;;;;4.04;88.24;101547.59;20823043;28;20057;-69
2021/10/24 01:34:59;;;;;;;16.48;8.35;;;;;;;3.86;88.34;101538.44;20822623;28;20054;-68
2021/10/24 01:45:08;;;;;;;20.30;8.18;;;;;;;3.82;88.70;101531.41;20822323;28;20050;-69
2021/10/24 01:55:14;;;;;;;16.13;8.10;;;;;;;3.82;88.08;101509.81;20822043;28;20107;-68
2021/10/24 02:05:16;;;;;;;17.00;7.57;;;;;;;3.81;88.48;101510.66;20820758;28;20057;-69
2021/10/24 02:15:18;;;;;;;13.65;8.00;;;;;;;3.76;88.76;101500.16;20821752;28;20100;-68
2021/10/24 02:25:20;;;;;;;19.73;8.32;;;;;;;3.79;88.27;101489.91;20820147;28;20053;-68
2021/10/24 02:35:25;;;;;;;18.52;7.75;;;;;;;3.75;88.80;101487.16;20817168;28;20041;-68
2021/10/24 02:45:27;;;;;;;16.33;8.23;;;;;;;3.68;88.57;101477.44;20801375;28;20060;-68
2021/10/24 02:55:28;;;;;;;21.60;9.20;;;;;;;3.56;88.89;101472.78;20817759;28;20565;-68
2021/10/24 03:05:30;;;;;;;19.20;8.57;;;;;;;3.58;88.89;101473.69;20816326;28;20465;-69
2021/10/24 03:15:31;;;;;;;16.67;8.30;;;;;;;3.51;88.17;101470.06;20817092;28;20103;-68
2021/10/24 03:25:33;;;;;;;19.08;8.20;;;;;;;3.44;88.40;101469.81;20816251;28;20107;-68
2021/10/24 03:35:34;;;;;;;21.23;8.35;;;;;;;3.32;88.84;101473.81;20815098;28;20049;-69
2021/10/24 03:45:36;;;;;;;16.17;7.82;;;;;;;3.27;89.36;101477.97;20817785;28;20049;-67
2021/10/24 03:55:37;;;;;;;15.38;7.82;;;;;;;3.27;88.89;101467.59;20831815;28;20494;-68
2021/10/24 04:05:44;;;;;;;17.08;7.97;;;;;;;3.12;89.53;101466.25;20830717;28;20046;-69
2021/10/24 04:15:45;;;;;;;14.93;7.45;;;;;;;3.00;89.81;101471.91;20829806;28;20057;-69
2021/10/24 04:25:47;;;;;;;17.10;7.55;;;;;;;2.89;89.59;101470.69;20828852;28;20048;-68
2021/10/24 04:35:48;;;;;;;16.88;8.23;;;;;;;2.85;89.85;101471.41;20828310;28;20045;-68
2021/10/24 04:45:50;;;;;;;14.25;7.88;;;;;;;2.81;89.73;101473.88;20828453;28;20376;-69
2021/10/24 04:55:53;;;;;;;20.75;8.73;;;;;;;2.87;89.43;101477.50;20827352;28;20056;-68
2021/10/24 05:05:55;;;;;;;19.52;8.10;;;;;;;2.83;89.09;101474.84;20825178;28;20127;-68
2021/10/24 05:15:57;;;;;;;18.17;8.23;;;;;;;2.71;89.00;101464.06;20825994;28;20486;-69
2021/10/24 05:26:00;;;;;;;15.55;7.57;;;;;;;2.20;90.49;101461.44;20824959;28;20111;-69
2021/10/24 05:36:02;;;;;;;18.35;9.18;;;;;;;2.02;90.58;101458.25;20823634;28;20053;-69
2021/10/24 05:46:05;;;;;;;17.05;8.98;;;;;;;1.78;91.44;101456.53;20823596;28;20045;-69
2021/10/24 05:56:07;;;;;;;21.17;9.02;;;;;;;1.64;92.34;101459.41;20823172;28;20214;-69
2021/10/24 06:06:09;;;;;;;23.63;10.88;;;;;;;1.60;91.80;101463.59;20821458;28;20064;-67
2021/10/24 06:16:10;;;;;;;25.52;13.15;;;;;;;1.66;92.11;101468.97;20821769;28;20111;-69
2021/10/24 06:26:12;;;;;;;23.05;10.45;;;;;;;1.69;92.58;101476.84;20818849;28;20049;-67
2021/10/24 06:36:13;;;;;;;22.95;12.70;;;;;;;1.87;92.44;101468.00;20818006;28;20119;-67
2021/10/24 06:46:15;;;;;;;21.58;9.88;;;;;;;2.21;91.53;101478.72;20818966;28;20466;-67
2021/10/24 06:56:16;;;;;;;20.48;9.38;;;;;;;2.33;91.14;101475.69;20817331;28;20053;-67
2021/10/24 07:06:18;;;;;;;32.70;15.00;;;;;;;2.49;91.44;101475.41;20830610;28;20041;-67
2021/10/24 07:16:20;;;;;;;28.35;13.35;;;;;;;2.81;90.33;101473.88;20810748;28;20387;-68
2021/10/24 07:26:22;;;;;;;17.73;10.45;;;;;;;3.11;89.72;101470.53;20791886;28;20045;-67
2021/10/24 07:36:23;;;;;;;18.55;9.15;;;;;;;3.44;88.41;101469.81;20807796;28;20407;-68
2021/10/24 07:46:25;;;;;;;18.30;9.18;;;;;;;3.85;87.03;101463.28;20809005;28;20514;-68
2021/10/24 07:56:27;;;;;;;17.90;8.02;;;;;;;4.18;86.72;101472.84;20808514;28;20050;-68
2021/10/24 08:06:33;;;;;;;15.73;8.07;;;;;;;4.49;84.87;101469.34;20808292;28;20033;-68
2021/10/24 08:16:39;;;;;;;17.90;7.72;;;;;;;5.00;82.57;101463.72;20809243;28;20058;-68
2021/10/24 08:26:41;;;;;;;11.02;6.03;;;;;;;5.33;81.07;101467.09;20807158;28;20702;-68
2021/10/24 08:36:43;;;;;;;14.18;5.97;;;;;;;5.68;79.51;101451.41;20814166;28;20050;-68
2021/10/24 08:46:46;;;;;;;14.32;5.72;;;;;;;6.01;79.82;101450.38;20821280;28;20046;-68
2021/10/24 08:56:47;;;;;;;17.55;5.80;;;;;;;6.21;77.88;101456.81;20821208;28;20544;-68
2021/10/24 09:06:59;;;;;;;13.98;5.32;;;;;;;6.52;76.08;101437.47;20819373;28;20045;-68
2021/10/24 09:17:01;;;;;;;10.50;5.55;;;;;;;6.91;74.53;101432.03;20818870;28;20057;-68
2021/10/24 09:27:08;;;;;;;13.65;5.22;;;;;;;7.13;74.16;101429.75;20817674;28;20045;-69
2021/10/24 09:37:17;;;;;;;10.60;5.20;;;;;;;7.40;72.50;101417.13;20808830;28;20057;-68
2021/10/24 09:47:22;;;;;;;12.95;4.88;;;;;;;7.66;72.62;101424.41;20815894;28;20038;-68
2021/10/24 09:57:23;;;;;;;12.13;5.53;;;;;;;7.91;73.43;101429.06;20815993;28;20444;-69
2021/10/24 10:07:27;;;;;;;12.95;5.72;;;;;;;7.94;71.94;101418.66;20814250;28;20046;-68
2021/10/24 10:17:29;;;;;;;9.98;5.32;;;;;;;8.19;71.82;101413.69;20813676;28;20119;-69
2021/10/24 10:27:34;;;;;;;11.20;5.47;;;;;;;8.10;72.44;101403.19;20813121;28;20049;-68
2021/10/24 10:38:01;;;;;;;10.50;4.45;;;;;;;8.28;71.58;101398.13;20812068;28;20647;-68
2021/10/24 10:48:21;;;;;;;15.77;6.30;;;;;;;8.71;70.95;101382.88;20812554;28;20442;-68
2021/10/24 10:58:36;;;;;;;10.73;5.47;;;;;;;8.93;70.33;101383.94;20811143;28;20049;-68
2021/10/24 11:08:52;;;;;;;12.38;5.28;;;;;;;9.17;70.27;101367.53;20809830;28;20054;-69
2021/10/24 11:18:54;;;;;;;10.68;5.28;;;;;;;9.38;69.08;101359.78;20808480;28;20445;-69
2021/10/24 11:28:56;;;;;;;10.50;5.60;;;;;;;9.29;68.18;101351.91;20809837;28;20107;-68
2021/10/24 11:39:03;;;;;;;13.27;5.72;;;;;;;9.64;66.18;101332.88;20808563;28;20057;-68
2021/10/24 11:49:06;;;;;;;13.88;5.57;;;;;;;9.67;66.97;101322.41;20808977;28;20053;-68
2021/10/24 12:09:39;;;;;;;10.27;4.85;;;;;;;9.99;65.55;101294.59;20814530;28;20111;-69
2021/10/24 12:19:41;;;;;;;15.73;6.05;;;;;;;10.06;65.39;101297.19;20741252;28;20762;-68
2021/10/24 12:29:57;;;;;;;8.00;4.15;;;;;;;10.23;63.49;101288.50;20740613;28;20053;-68
2021/10/24 12:40:19;;;;;;;8.88;3.67;;;;;;;10.41;63.58;101277.19;20738244;28;20461;-69
2021/10/24 12:50:31;;;;;;;9.05;4.28;;;;;;;10.53;62.13;101276.28;20739582;28;20157;-69
2021/10/24 13:00:34;;;;;;;8.70;3.75;;;;;;;10.63;62.97;101271.91;20737637;28;20663;-68
2021/10/24 13:10:35;;;;;;;8.30;4.30;;;;;;;10.77;62.66;101270.13;20742499;28;20049;-69
2021/10/24 13:20:39;;;;;;;6.30;3.40;;;;;;;10.75;63.12;101253.53;20818804;28;20053;-69
2021/10/24 13:30:40;;;;;;;8.02;4.18;;;;;;;10.88;63.09;101236.91;20817659;28;20045;-68
2021/10/24 13:40:42;;;;;;;10.45;3.53;;;;;;;10.87;64.00;101227.28;20816373;28;20560;-69
2021/10/24 13:50:44;;;;;;;8.95;3.72;;;;;;;11.01;64.11;101211.53;20816350;28;20469;-69
2021/10/24 14:00:46;;;;;;;7.30;3.97;;;;;;;11.28;61.47;101202.66;20815445;28;20045;-69
2021/10/24 14:10:50;;;;;;;9.30;4.05;;;;;;;11.39;61.47;101198.19;20815826;28;20588;-69
2021/10/24 14:20:52;;;;;;;7.57;3.70;;;;;;;11.60;61.35;101185.84;20812646;28;20049;-69
2021/10/24 14:30:54;;;;;;;9.75;3.70;;;;;;;11.23;62.19;101191.31;20811588;28;20045;-69
2021/10/24 14:40:56;;;;;;;6.47;3.20;;;;;;;11.08;63.55;101175.69;20812769;28;20156;-69
2021/10/24 14:50:57;;;;;;;6.25;2.97;;;;;;;10.96;63.01;101169.63;20811560;28;20508;-69
2021/10/24 15:00:59;;;;;;;6.05;2.80;;;;;;;11.00;63.29;101170.47;20808871;28;20115;-69
2021/10/24 15:11:03;;;;;;;5.07;2.95;;;;;;;10.84;64.59;101167.06;20809370;28;20075;-68
2021/10/24 15:21:10;;;;;;;7.47;3.30;;;;;;;10.77;64.44;101153.09;20810127;28;20050;-69
2021/10/24 15:31:13;;;;;;;7.55;2.92;;;;;;;10.51;65.22;101137.50;20809250;28;20052;-69
2021/10/24 15:41:15;;;;;;;5.80;3.00;;;;;;;10.42;65.19;101123.59;20810865;28;20584;-69
2021/10/24 15:51:22;;;;;;;8.82;3.72;;;;;;;10.13;69.65;101118.41;20827762;28;20475;-69
2021/10/24 16:01:23;;;;;;;10.27;7.03;;;;;;;9.67;73.30;101111.47;20825090;28;20533;-69
2021/10/24 16:11:26;;;;;;;9.60;4.15;;;;;;;8.98;76.95;101124.50;20812556;28;20042;-69
2021/10/24 16:21:27;;;;;;;7.68;3.55;;;;;;;8.58;80.80;101130.47;20742081;28;20046;-69
2021/10/24 16:31:30;;;;;;;7.43;4.30;;;;;;;8.23;82.86;101132.00;20740339;28;20046;-68
2021/10/24 16:41:31;;;;;;;13.27;4.40;;;;;;;7.97;83.33;101131.84;20741721;28;20145;-68
2021/10/24 16:51:33;;;;;;;8.68;4.70;;;;;;;7.58;85.44;101137.63;20738927;28;20552;-68
2021/10/24 17:01:35;;;;;;;8.90;4.10;;;;;;;7.32;86.46;101140.00;20737578;28;20050;-69
2021/10/24 17:11:38;;;;;;;9.65;4.85;;;;;;;7.02;87.15;101139.69;20750713;28;20041;-69
2021/10/24 17:21:50;;;;;;;8.02;3.97;;;;;;;6.80;87.50;101134.25;20819410;28;20053;-68
2021/10/24 17:31:52;;;;;;;7.85;4.35;;;;;;;6.59;87.15;101129.66;20818310;28;20053;-68
2021/10/24 17:41:53;;;;;;;9.50;5.47;;;;;;;6.52;87.65;101132.19;20817890;28;20049;-68
2021/10/24 17:51:55;;;;;;;9.85;6.00;;;;;;;6.25;88.45;101130.97;20818084;28;20556;-68
2021/10/24 18:01:59;;;;;;;9.90;5.07;;;;;;;6.03;89.32;101126.31;20814896;28;20057;-68
2021/10/24 18:12:01;;;;;;;19.95;12.40;;;;;;;5.85;89.73;101130.38;20814731;28;20136;-68
2021/10/24 18:22:04;;;;;;;11.77;6.55;;;;;;;5.59;90.13;101122.16;20814873;28;20057;-68
2021/10/24 18:32:08;;;;;;;15.90;8.15;;;;;;;5.54;91.15;101135.91;20813289;28;20046;-68
2021/10/24 18:42:10;;;;;;;15.85;8.35;;;;;;;5.38;90.67;101135.66;20814265;28;20084;-68
2021/10/24 18:52:11;;;;;;;16.45;8.65;;;;;;;5.26;90.99;101114.66;20812754;28;20159;-68
2021/10/24 19:02:33;;;;;;;17.60;9.13;;;;;;;5.14;91.59;101114.47;20811235;28;20049;-68
2021/10/24 19:12:36;;;;;;;16.48;8.90;;;;;;;5.03;91.03;101105.59;20812318;28;20055;-68
2021/10/24 19:22:40;;;;;;;16.95;9.35;;;;;;;4.88;91.05;101106.19;20813396;28;20053;-67
2021/10/24 19:32:45;;;;;;;21.50;11.47;;;;;;;4.79;91.43;101100.81;20810893;28;20063;-67
2021/10/24 19:42:47;;;;;;;20.90;12.38;;;;;;;4.74;91.06;101092.94;20809730;28;20045;-67
2021/10/24 19:52:49;;;;;;;21.88;12.13;;;;;;;4.63;90.61;101095.34;20809258;28;20127;-67
2021/10/24 20:02:51;;;;;;;19.88;12.63;;;;;;;4.48;91.26;101091.59;20808970;28;20057;-68
2021/10/24 20:12:53;;;;;;;18.33;12.07;;;;;;;4.31;90.37;101097.31;20809222;28;20100;-68
2021/10/24 20:22:55;;;;;;;31.42;18.40;;;;;;;4.22;91.94;101093.66;20807856;28;20431;-67
2021/10/24 20:32:57;;;;;;;26.52;17.88;;;;;;;4.15;90.77;101100.41;20817402;28;20100;-68
2021/10/24 20:43:00;;;;;;;24.60;13.98;;;;;;;4.02;91.43;101099.25;20822688;28;20052;-67
2021/10/24 20:53:01;;;;;;;23.77;13.02;;;;;;;3.95;91.53;101099.09;20822311;28;20096;-68
2021/10/24 21:03:03;;;;;;;17.60;9.60;;;;;;;3.84;91.37;101096.28;20819340;28;20045;-68
2021/10/24 21:13:05;;;;;;;16.88;9.70;;;;;;;3.68;90.97;101099.34;20818099;28;20061;-67
2021/10/24 21:23:08;;;;;;;18.02;10.73;;;;;;;3.63;91.33;101104.41;20820332;28;20085;-68
2021/10/24 21:33:10;;;;;;;21.80;12.93;;;;;;;3.53;91.92;101097.25;20817977;28;20041;-67
2021/10/24 21:43:11;;;;;;;17.73;10.70;;;;;;;3.41;91.15;101097.84;20818231;28;20056;-67
2021/10/24 21:53:13;;;;;;;20.88;9.50;;;;;;;3.29;92.20;101113.06;20816803;28;20115;-68
2021/10/24 22:03:14;;;;;;;18.75;11.07;;;;;;;3.20;91.71;101108.53;20816862;28;20049;-68
2021/10/24 22:13:16;;;;;;;17.95;10.13;;;;;;;3.07;92.44;101114.25;20822407;28;20462;-68
2021/10/24 22:23:18;;;;;;;17.60;10.50;;;;;;;3.03;91.41;101104.66;20821077;28;20060;-67
2021/10/24 22:33:20;;;;;;;15.95;8.82;;;;;;;2.91;91.00;101119.81;20820410;28;20092;-67
2021/10/24 22:43:22;;;;;;;14.88;9.20;;;;;;;2.78;91.07;101113.47;20820011;28;20480;-67
2021/10/24 22:53:23;;;;;;;15.45;10.18;;;;;;;2.73;90.86;101115.94;20817298;28;20087;-67
2021/10/24 23:03:25;;;;;;;17.17;9.55;;;;;;;2.69;90.75;101108.91;20818182;28;20053;-68
2021/10/24 23:13:26;;;;;;;16.33;8.38;;;;;;;2.57;91.02;101106.84;20817902;28;20127;-68
2021/10/24 23:23:28;;;;;;;17.73;8.75;;;;;;;2.46;90.37;101099.63;20817156;28;20046;-68
2021/10/24 23:33:30;;;;;;;18.45;9.75;;;;;;;2.35;90.20;101095.84;20815942;28;20525;-67
2021/10/24 23:43:31;;;;;;;18.90;9.55;;;;;;;2.28;89.74;101093.09;20816243;28;20061;-68
2021/10/24 23:53:33;;;;;;;12.18;8.55;;;;;;;2.26;89.84;101099.94;20816489;28;20069;-68
